Time;durP1;ratioP1;P1;durP2;ratioP2;P2;SDS_P1;SDS_P2;PMS_P1;PMS_P2;Temp;Humidity;BMP_temperature;BMP_pressure;BME280_temperature;BME280_humidity;BME280_pressure;Samples;Min_cycle;Max_cycle;Signal;HPM_P1;HPM_P2
2021/09/22 00:18:25;;;;;;;18.23;7.68;;;;;;;;;;4146085;34;20749;-65
2021/09/22 00:20:51;;;;;;;9.77;3.75;;;;;;;;;;4144674;34;20134;-64
2021/09/22 00:23:16;;;;;;;9.55;3.30;;;;;;;;;;4124487;34;20115;-63
2021/09/22 00:25:42;;;;;;;5.68;2.75;;;;;;;;;;4137158;34;20416;-64
2021/09/22 00:28:08;;;;;;;7.78;3.15;;;;;;;;;;4116588;34;20103;-64
2021/09/22 00:30:35;;;;;;;6.28;2.53;;;;;;;;;;4123214;34;20115;-65
2021/09/22 00:33:01;;;;;;;7.40;2.65;;;;;;;;;;4123639;34;20208;-63
2021/09/22 00:35:27;;;;;;;7.85;2.78;;;;;;;;;;4124860;34;20104;-63
2021/09/22 00:37:54;;;;;;;5.03;2.45;;;;;;;;;;4136962;34;20107;-65
2021/09/22 00:40:20;;;;;;;4.87;2.22;;;;;;;;;;4124008;34;20127;-65
2021/09/22 00:42:46;;;;;;;7.70;2.60;;;;;;;;;;4123803;34;20103;-65
2021/09/22 00:45:13;;;;;;;7.75;3.22;;;;;;;;;;4123404;34;20143;-65
2021/09/22 00:47:39;;;;;;;11.73;3.40;;;;;;;;;;4115361;34;20519;-65
2021/09/22 00:50:05;;;;;;;5.68;2.53;;;;;;;;;;4117706;34;20112;-65
2021/09/22 00:52:31;;;;;;;9.70;2.47;;;;;;;;;;4117427;34;20106;-65
2021/09/22 00:54:57;;;;;;;7.03;3.08;;;;;;;;;;4107001;34;20100;-63
2021/09/22 00:57:23;;;;;;;4.07;2.42;;;;;;;;;;4124699;34;20463;-65
2021/09/22 00:59:49;;;;;;;6.53;2.47;;;;;;;;;;4135624;34;20134;-65
2021/09/22 01:02:15;;;;;;;5.25;2.58;;;;;;;;;;4136906;34;20127;-64
2021/09/22 01:04:42;;;;;;;7.37;3.80;;;;;;;;;;4127230;34;20135;-65
2021/09/22 01:07:12;;;;;;;8.80;2.62;;;;;;;;;;4113017;34;20095;-64
2021/09/22 01:09:38;;;;;;;6.20;2.62;;;;;;;;;;4115427;34;20108;-63
2021/09/22 01:12:05;;;;;;;9.38;2.55;;;;;;;;;;4111078;34;20104;-64
2021/09/22 01:14:31;;;;;;;5.93;2.62;;;;;;;;;;4123335;34;20107;-64
2021/09/22 01:16:57;;;;;;;8.18;2.67;;;;;;;;;;4123338;34;20493;-65
2021/09/22 01:19:23;;;;;;;5.25;2.45;;;;;;;;;;4122534;34;20170;-64
2021/09/22 01:21:51;;;;;;;7.65;2.30;;;;;;;;;;4123279;34;20119;-64
2021/09/22 01:24:17;;;;;;;10.57;2.78;;;;;;;;;;4113867;34;20119;-65
2021/09/22 01:26:43;;;;;;;9.35;2.65;;;;;;;;;;4136735;34;20211;-65
2021/09/22 01:29:09;;;;;;;8.02;2.80;;;;;;;;;;4136553;34;20131;-64
2021/09/22 01:31:36;;;;;;;5.65;2.92;;;;;;;;;;4136119;34;20180;-64
2021/09/22 01:34:02;;;;;;;8.45;2.58;;;;;;;;;;4118303;34;20106;-65
2021/09/22 01:36:28;;;;;;;6.28;2.60;;;;;;;;;;4110631;34;20126;-65
2021/09/22 01:38:54;;;;;;;6.25;2.90;;;;;;;;;;4123201;34;20191;-65
2021/09/22 01:41:20;;;;;;;8.40;2.92;;;;;;;;;;4110870;34;20491;-65
2021/09/22 01:43:46;;;;;;;15.30;3.92;;;;;;;;;;4122881;34;20122;-65
2021/09/22 01:46:12;;;;;;;9.07;3.20;;;;;;;;;;4123297;34;20168;-65
2021/09/22 01:48:39;;;;;;;14.18;3.10;;;;;;;;;;4123158;34;20131;-66
2021/09/22 01:51:05;;;;;;;9.90;3.10;;;;;;;;;;4128164;34;20565;-66
2021/09/22 01:53:33;;;;;;;20.88;3.62;;;;;;;;;;4126579;34;20541;-65
2021/09/22 01:55:59;;;;;;;10.27;3.30;;;;;;;;;;4136289;34;20126;-65
2021/09/22 01:58:25;;;;;;;6.90;2.47;;;;;;;;;;4136674;34;20134;-65
2021/09/22 02:00:53;;;;;;;11.43;2.80;;;;;;;;;;4124295;34;20103;-66
2021/09/22 02:03:19;;;;;;;8.20;3.03;;;;;;;;;;4136213;34;20472;-64
2021/09/22 02:05:45;;;;;;;9.43;2.87;;;;;;;;;;4123606;34;20162;-64
2021/09/22 02:08:11;;;;;;;4.72;2.47;;;;;;;;;;4123440;34;20482;-66
2021/09/22 02:10:38;;;;;;;12.75;3.00;;;;;;;;;;4112769;34;20130;-65
2021/09/22 02:13:04;;;;;;;10.73;2.78;;;;;;;;;;4123525;34;20533;-64
2021/09/22 02:15:30;;;;;;;8.65;3.78;;;;;;;;;;4135913;34;20115;-66
2021/09/22 02:17:56;;;;;;;12.82;3.00;;;;;;;;;;4131996;34;20116;-65
2021/09/22 02:20:21;;;;;;;12.30;2.95;;;;;;;;;;4134131;34;20130;-65
2021/09/22 02:22:48;;;;;;;16.77;3.28;;;;;;;;;;4136351;34;20220;-66
2021/09/22 02:25:13;;;;;;;22.13;14.15;;;;;;;;;;4130364;34;20101;-65
2021/09/22 02:27:40;;;;;;;8.45;3.28;;;;;;;;;;4122808;34;20112;-65
2021/09/22 02:30:07;;;;;;;12.50;3.15;;;;;;;;;;4123484;34;20107;-65
2021/09/22 02:32:33;;;;;;;13.70;3.47;;;;;;;;;;4124779;34;20098;-64
2021/09/22 02:34:59;;;;;;;13.60;3.30;;;;;;;;;;4124385;34;20136;-64
2021/09/22 02:37:25;;;;;;;13.88;3.22;;;;;;;;;;4125020;34;20136;-64
2021/09/22 02:39:52;;;;;;;11.43;3.03;;;;;;;;;;4112152;34;20258;-65
2021/09/22 02:42:18;;;;;;;14.73;2.58;;;;;;;;;;4124983;34;20108;-63
2021/09/22 02:44:44;;;;;;;12.55;2.85;;;;;;;;;;4124203;34;20176;-64
2021/09/22 02:47:10;;;;;;;11.43;3.22;;;;;;;;;;4123027;34;20146;-65
2021/09/22 02:49:36;;;;;;;16.62;2.95;;;;;;;;;;4123313;34;20232;-64
2021/09/22 02:52:02;;;;;;;12.05;2.95;;;;;;;;;;4130326;34;20123;-64
2021/09/22 02:54:28;;;;;;;13.75;3.28;;;;;;;;;;4132256;34;20115;-64
2021/09/22 02:56:54;;;;;;;10.45;3.12;;;;;;;;;;4137470;34;20139;-64
2021/09/22 02:59:20;;;;;;;9.55;4.35;;;;;;;;;;4137026;34;20092;-65
2021/09/22 03:01:46;;;;;;;12.95;3.00;;;;;;;;;;4138094;34;20130;-64
2021/09/22 03:04:12;;;;;;;9.00;2.95;;;;;;;;;;4137563;34;20527;-64
2021/09/22 03:06:38;;;;;;;11.27;2.72;;;;;;;;;;4136418;34;20126;-65
2021/09/22 03:09:04;;;;;;;15.27;2.87;;;;;;;;;;4137409;34;20264;-65
2021/09/22 03:11:30;;;;;;;12.93;3.08;;;;;;;;;;4137713;34;20115;-65
2021/09/22 03:13:56;;;;;;;10.52;2.67;;;;;;;;;;4136059;34;20138;-66
2021/09/22 03:16:22;;;;;;;10.80;3.10;;;;;;;;;;4137355;34;20451;-65
2021/09/22 03:18:48;;;;;;;10.35;2.53;;;;;;;;;;4137762;34;20099;-65
2021/09/22 03:21:14;;;;;;;7.07;3.50;;;;;;;;;;4137775;34;20145;-65
2021/09/22 03:23:40;;;;;;;11.15;4.10;;;;;;;;;;4137884;34;20130;-67
2021/09/22 03:26:06;;;;;;;9.43;3.72;;;;;;;;;;4137470;34;20119;-69
2021/09/22 03:28:32;;;;;;;9.35;2.45;;;;;;;;;;4137652;34;20215;-63
2021/09/22 03:30:58;;;;;;;12.27;2.97;;;;;;;;;;4125540;34;20126;-63
2021/09/22 03:33:24;;;;;;;7.32;2.40;;;;;;;;;;4134810;34;20486;-63
2021/09/22 03:35:50;;;;;;;10.43;2.33;;;;;;;;;;4124185;34;20139;-68
2021/09/22 03:38:16;;;;;;;10.27;3.05;;;;;;;;;;4111914;34;20134;-73
2021/09/22 03:40:42;;;;;;;11.35;2.08;;;;;;;;;;4124535;34;20549;-66
2021/09/22 03:43:09;;;;;;;7.12;2.42;;;;;;;;;;4111530;34;20124;-66
2021/09/22 03:45:34;;;;;;;15.68;2.67;;;;;;;;;;4124021;34;20225;-63
2021/09/22 03:48:00;;;;;;;10.45;2.83;;;;;;;;;;4123940;34;20112;-69
2021/09/22 03:50:26;;;;;;;7.35;2.17;;;;;;;;;;4112799;34;20092;-64
2021/09/22 03:52:52;;;;;;;8.43;2.70;;;;;;;;;;4112861;34;20219;-65
2021/09/22 03:55:18;;;;;;;7.75;2.92;;;;;;;;;;4123988;34;20122;-71
2021/09/22 03:57:44;;;;;;;11.95;3.42;;;;;;;;;;4111637;34;20124;-67
2021/09/22 04:00:10;;;;;;;14.82;2.53;;;;;;;;;;4111424;34;20146;-67
2021/09/22 04:02:37;;;;;;;9.52;2.87;;;;;;;;;;4130599;34;20229;-65
2021/09/22 04:05:03;;;;;;;16.87;2.65;;;;;;;;;;4137208;34;20494;-67
2021/09/22 04:07:30;;;;;;;8.20;3.15;;;;;;;;;;4125121;34;20115;-67
2021/09/22 04:09:56;;;;;;;9.43;2.30;;;;;;;;;;4126256;34;20127;-65
2021/09/22 04:12:23;;;;;;;4.93;2.55;;;;;;;;;;4124041;34;20208;-66
2021/09/22 04:14:49;;;;;;;9.10;2.10;;;;;;;;;;4123479;34;20567;-69
2021/09/22 04:17:15;;;;;;;6.45;2.40;;;;;;;;;;4104685;34;20262;-68
2021/09/22 04:19:41;;;;;;;7.95;2.40;;;;;;;;;;4122346;34;20202;-68
2021/09/22 04:22:07;;;;;;;13.62;2.67;;;;;;;;;;4123710;34;20131;-64
2021/09/22 04:24:33;;;;;;;12.02;2.70;;;;;;;;;;4123750;34;20507;-65
2021/09/22 04:27:09;;;;;;;15.25;2.83;;;;;;;;;;4123370;34;20134;-65
2021/09/22 04:30:31;;;;;;;11.75;2.67;;;;;;;;;;4123630;34;20120;-64
2021/09/22 04:32:56;;;;;;;8.50;2.67;;;;;;;;;;4124018;34;20203;-69
2021/09/22 04:35:22;;;;;;;10.18;2.75;;;;;;;;;;4128438;34;20111;-65
2021/09/22 04:37:48;;;;;;;5.87;2.17;;;;;;;;;;4137282;34;20127;-64
2021/09/22 04:40:14;;;;;;;6.32;2.42;;;;;;;;;;4135688;34;20123;-64
2021/09/22 04:42:41;;;;;;;8.50;3.25;;;;;;;;;;4131945;34;20198;-69
2021/09/22 04:45:07;;;;;;;10.32;2.70;;;;;;;;;;4123210;34;20127;-64
2021/09/22 04:47:33;;;;;;;9.15;3.05;;;;;;;;;;4123671;34;20138;-68
2021/09/22 04:49:59;;;;;;;10.90;2.50;;;;;;;;;;4122079;34;20115;-63
2021/09/22 04:52:25;;;;;;;8.70;2.20;;;;;;;;;;4129487;34;20523;-69
2021/09/22 04:54:51;;;;;;;12.32;3.20;;;;;;;;;;4131961;34;20123;-71
2021/09/22 04:57:17;;;;;;;6.68;2.55;;;;;;;;;;4136158;34;20619;-67
2021/09/22 04:59:43;;;;;;;24.40;3.53;;;;;;;;;;4122791;34;20147;-65
2021/09/22 05:02:09;;;;;;;12.98;2.58;;;;;;;;;;4123774;34;20139;-65
2021/09/22 05:04:35;;;;;;;7.45;2.37;;;;;;;;;;4123895;34;20183;-66
2021/09/22 05:07:01;;;;;;;7.62;2.35;;;;;;;;;;4123474;34;20175;-65
2021/09/22 05:09:26;;;;;;;9.60;2.03;;;;;;;;;;4123509;34;20483;-66
2021/09/22 05:11:54;;;;;;;8.50;2.75;;;;;;;;;;4123569;34;20132;-65
2021/09/22 05:14:20;;;;;;;6.70;2.55;;;;;;;;;;4123473;34;20107;-65
2021/09/22 05:16:46;;;;;;;6.57;2.20;;;;;;;;;;4123380;34;20240;-65
2021/09/22 05:19:12;;;;;;;4.50;2.40;;;;;;;;;;4123547;34;20143;-66
2021/09/22 05:21:38;;;;;;;9.18;5.15;;;;;;;;;;4123598;34;20208;-66
2021/09/22 05:24:04;;;;;;;8.27;2.37;;;;;;;;;;4111412;34;20471;-65
2021/09/22 05:26:30;;;;;;;5.05;1.90;;;;;;;;;;4122425;34;20534;-67
2021/09/22 05:28:56;;;;;;;4.85;2.20;;;;;;;;;;4123713;34;20542;-66
2021/09/22 05:31:22;;;;;;;6.57;2.22;;;;;;;;;;4123224;34;20151;-68
2021/09/22 05:33:48;;;;;;;9.60;2.25;;;;;;;;;;4123584;34;20211;-66
2021/09/22 05:36:14;;;;;;;9.60;2.75;;;;;;;;;;4123147;34;20158;-66
2021/09/22 05:38:40;;;;;;;3.67;1.80;;;;;;;;;;4123316;34;20135;-65
2021/09/22 05:41:05;;;;;;;7.82;2.00;;;;;;;;;;4123295;34;20475;-67
2021/09/22 05:43:31;;;;;;;3.47;2.03;;;;;;;;;;4123347;34;20204;-65
2021/09/22 05:45:57;;;;;;;9.38;2.28;;;;;;;;;;4123266;34;20118;-66
2021/09/22 05:48:23;;;;;;;6.82;3.55;;;;;;;;;;4123080;34;20229;-67
2021/09/22 05:50:49;;;;;;;6.37;2.40;;;;;;;;;;4126154;34;20135;-65
2021/09/22 05:53:15;;;;;;;3.62;2.10;;;;;;;;;;4119053;34;20135;-67
2021/09/22 05:55:41;;;;;;;7.20;4.05;;;;;;;;;;4136367;34;20142;-65
2021/09/22 05:58:07;;;;;;;13.32;7.90;;;;;;;;;;4136169;34;20227;-66
2021/09/22 06:00:32;;;;;;;15.18;8.43;;;;;;;;;;4136218;34;20265;-67
2021/09/22 06:02:58;;;;;;;14.80;10.18;;;;;;;;;;4136187;34;20305;-66
2021/09/22 06:05:24;;;;;;;20.20;9.13;;;;;;;;;;4123013;34;20130;-67
2021/09/22 06:07:50;;;;;;;10.52;4.20;;;;;;;;;;4128410;34;20633;-67
2021/09/22 06:10:16;;;;;;;18.77;6.07;;;;;;;;;;4122987;34;20115;-65
2021/09/22 06:12:42;;;;;;;21.05;11.25;;;;;;;;;;4122674;34;20228;-65
2021/09/22 06:15:08;;;;;;;16.65;6.15;;;;;;;;;;4122519;34;20127;-66
2021/09/22 06:17:34;;;;;;;15.88;8.50;;;;;;;;;;4122242;34;20221;-66
2021/09/22 06:20:00;;;;;;;12.10;8.05;;;;;;;;;;4122843;34;20141;-65
2021/09/22 06:22:26;;;;;;;15.57;9.93;;;;;;;;;;4122544;34;20239;-66
2021/09/22 06:24:52;;;;;;;10.15;5.47;;;;;;;;;;4123029;34;20104;-67
2021/09/22 06:27:18;;;;;;;7.80;3.35;;;;;;;;;;4122369;34;20118;-67
2021/09/22 06:29:44;;;;;;;4.40;2.65;;;;;;;;;;4122888;34;20179;-65
2021/09/22 06:32:10;;;;;;;7.75;3.53;;;;;;;;;;4109935;34;20196;-67
2021/09/22 06:34:36;;;;;;;4.55;2.78;;;;;;;;;;4122799;34;20512;-67
2021/09/22 06:37:02;;;;;;;7.47;2.53;;;;;;;;;;4122872;34;20554;-66
2021/09/22 06:39:28;;;;;;;5.30;2.47;;;;;;;;;;4122768;34;20127;-64
2021/09/22 06:41:55;;;;;;;6.62;2.87;;;;;;;;;;4110203;34;20139;-65
2021/09/22 06:44:21;;;;;;;5.25;2.28;;;;;;;;;;4110532;34;20439;-65
2021/09/22 06:46:47;;;;;;;6.25;2.80;;;;;;;;;;4110902;34;20115;-65
2021/09/22 06:49:13;;;;;;;5.55;2.60;;;;;;;;;;4122490;34;20104;-64
2021/09/22 06:51:39;;;;;;;4.55;2.50;;;;;;;;;;4117831;34;20119;-65
2021/09/22 06:54:04;;;;;;;6.85;2.55;;;;;;;;;;4135969;34;20601;-64
2021/09/22 06:56:31;;;;;;;8.57;2.70;;;;;;;;;;4136226;34;20127;-65
2021/09/22 06:58:56;;;;;;;6.18;2.50;;;;;;;;;;4136110;34;20128;-63
2021/09/22 07:01:22;;;;;;;4.80;2.67;;;;;;;;;;4134310;34;20128;-66
2021/09/22 07:03:48;;;;;;;3.60;2.75;;;;;;;;;;4134262;34;20139;-66
2021/09/22 07:06:14;;;;;;;5.28;3.28;;;;;;;;;;4133648;34;20138;-66
2021/09/22 07:08:40;;;;;;;5.10;2.65;;;;;;;;;;4121079;34;20139;-66
2021/09/22 07:11:07;;;;;;;5.03;2.50;;;;;;;;;;4133720;34;20240;-64
2021/09/22 07:13:35;;;;;;;9.73;2.92;;;;;;;;;;4133594;34;20135;-64
2021/09/22 07:16:02;;;;;;;5.80;3.00;;;;;;;;;;4133472;34;20552;-64
2021/09/22 07:18:28;;;;;;;3.72;2.47;;;;;;;;;;4135462;34;20475;-64
2021/09/22 07:20:54;;;;;;;7.70;2.67;;;;;;;;;;4124078;34;20146;-67
2021/09/22 07:23:20;;;;;;;4.75;2.70;;;;;;;;;;4124589;34;20123;-65
2021/09/22 07:25:46;;;;;;;7.03;2.53;;;;;;;;;;4137769;34;20119;-65
2021/09/22 07:28:12;;;;;;;7.87;3.55;;;;;;;;;;4137254;34;20456;-66
2021/09/22 07:30:38;;;;;;;8.55;5.93;;;;;;;;;;4114032;34;20548;-66
2021/09/22 07:33:05;;;;;;;9.75;5.22;;;;;;;;;;4137516;34;20094;-65
2021/09/22 07:35:32;;;;;;;10.40;3.75;;;;;;;;;;4137772;34;20126;-65
2021/09/22 07:37:58;;;;;;;13.68;9.80;;;;;;;;;;4125219;34;20198;-65
2021/09/22 07:40:23;;;;;;;3.50;2.65;;;;;;;;;;4137559;34;20147;-65
2021/09/22 07:42:49;;;;;;;8.80;4.25;;;;;;;;;;4124926;34;20122;-67
2021/09/22 07:45:15;;;;;;;17.37;10.93;;;;;;;;;;4137493;34;20441;-66
2021/09/22 07:47:41;;;;;;;17.77;10.45;;;;;;;;;;4137291;34;20139;-67
2021/09/22 07:50:08;;;;;;;7.15;2.58;;;;;;;;;;4137601;34;20122;-67
2021/09/22 07:52:36;;;;;;;5.12;3.20;;;;;;;;;;4137411;34;20223;-67
2021/09/22 07:55:04;;;;;;;5.18;2.83;;;;;;;;;;4137460;34;20111;-67
2021/09/22 07:57:31;;;;;;;7.47;3.47;;;;;;;;;;4137455;34;20134;-67
2021/09/22 07:59:57;;;;;;;5.65;4.53;;;;;;;;;;4137407;34;20111;-67
2021/09/22 08:02:23;;;;;;;12.30;9.23;;;;;;;;;;4137375;34;20131;-67
2021/09/22 08:04:49;;;;;;;6.00;4.80;;;;;;;;;;4113826;34;20558;-67
2021/09/22 08:07:17;;;;;;;19.05;12.10;;;;;;;;;;4137191;34;20124;-67
2021/09/22 08:09:43;;;;;;;28.55;16.35;;;;;;;;;;4137317;34;20114;-67
2021/09/22 08:12:09;;;;;;;39.75;18.25;;;;;;;;;;4137210;34;20098;-67
2021/09/22 08:14:35;;;;;;;26.52;17.60;;;;;;;;;;4125006;34;20107;-67
2021/09/22 08:17:01;;;;;;;42.38;18.52;;;;;;;;;;4137339;34;20119;-65
2021/09/22 08:19:27;;;;;;;55.20;31.45;;;;;;;;;;4137576;34;20130;-63
2021/09/22 08:21:54;;;;;;;47.13;24.08;;;;;;;;;;4137473;34;20107;-63
2021/09/22 08:24:19;;;;;;;17.55;12.40;;;;;;;;;;4124997;34;20123;-65
2021/09/22 08:26:45;;;;;;;22.35;13.10;;;;;;;;;;4137202;34;20199;-65
2021/09/22 08:29:12;;;;;;;20.75;13.15;;;;;;;;;;4137369;34;20131;-64
2021/09/22 08:31:38;;;;;;;40.58;22.13;;;;;;;;;;4136974;34;20100;-66
2021/09/22 08:34:04;;;;;;;28.15;14.48;;;;;;;;;;4137368;34;20209;-64
2021/09/22 08:36:33;;;;;;;13.13;8.93;;;;;;;;;;4124492;34;20332;-65
2021/09/22 08:38:58;;;;;;;7.93;6.28;;;;;;;;;;4137217;34;20127;-65
2021/09/22 08:41:24;;;;;;;8.18;6.12;;;;;;;;;;4137120;34;20111;-65
2021/09/22 08:43:50;;;;;;;11.90;5.47;;;;;;;;;;4124833;34;20102;-64
2021/09/22 08:46:18;;;;;;;4.75;2.90;;;;;;;;;;4124601;34;20235;-64
2021/09/22 08:48:44;;;;;;;6.35;3.28;;;;;;;;;;4113887;34;20111;-63
2021/09/22 08:51:10;;;;;;;24.80;14.15;;;;;;;;;;4136962;34;20227;-64
2021/09/22 08:53:36;;;;;;;6.95;4.37;;;;;;;;;;4137076;34;20102;-65
2021/09/22 08:56:02;;;;;;;18.12;12.52;;;;;;;;;;4137145;34;20123;-65
2021/09/22 08:58:29;;;;;;;5.07;3.15;;;;;;;;;;4137582;34;20127;-64
2021/09/22 09:01:09;;;;;;;6.85;3.80;;;;;;;;;;4137163;34;20122;-64
2021/09/22 09:03:41;;;;;;;5.47;4.20;;;;;;;;;;4124814;34;20527;-64
2021/09/22 09:06:33;;;;;;;8.85;6.28;;;;;;;;;;4137308;34;20113;-66
2021/09/22 09:09:00;;;;;;;21.12;11.05;;;;;;;;;;4136876;34;20204;-65
2021/09/22 09:11:29;;;;;;;9.85;6.10;;;;;;;;;;4124363;34;20130;-64
2021/09/22 09:13:57;;;;;;;8.38;5.35;;;;;;;;;;4136832;34;20516;-64
2021/09/22 09:16:23;;;;;;;6.05;4.43;;;;;;;;;;4113416;34;20528;-64
2021/09/22 09:18:54;;;;;;;5.32;4.70;;;;;;;;;;4136891;34;20131;-64
2021/09/22 09:21:23;;;;;;;8.45;3.87;;;;;;;;;;4124600;34;20119;-64
2021/09/22 09:23:51;;;;;;;7.68;2.70;;;;;;;;;;4136995;34;20496;-64
2021/09/22 09:26:23;;;;;;;4.60;3.33;;;;;;;;;;4124631;34;20531;-64
2021/09/22 09:28:57;;;;;;;4.37;3.22;;;;;;;;;;4136675;34;20140;-65
2021/09/22 09:31:29;;;;;;;3.58;2.92;;;;;;;;;;4124532;34;20095;-63
2021/09/22 09:33:56;;;;;;;4.32;3.08;;;;;;;;;;4125174;34;20491;-61
2021/09/22 09:36:28;;;;;;;4.43;2.80;;;;;;;;;;4124410;34;20123;-64
2021/09/22 09:39:07;;;;;;;4.62;2.97;;;;;;;;;;4137014;34;20100;-61
2021/09/22 09:41:42;;;;;;;5.15;3.10;;;;;;;;;;4136578;34;20126;-63
2021/09/22 09:44:10;;;;;;;4.53;3.17;;;;;;;;;;4136771;34;20115;-64
2021/09/22 09:46:36;;;;;;;3.00;1.95;;;;;;;;;;4112157;34;20517;-65
2021/09/22 09:49:08;;;;;;;3.35;2.20;;;;;;;;;;4124114;34;20183;-62
2021/09/22 09:51:37;;;;;;;4.50;2.35;;;;;;;;;;4136933;34;20134;-63
2021/09/22 09:54:07;;;;;;;9.95;5.90;;;;;;;;;;4136527;34;20742;-72
2021/09/22 09:56:33;;;;;;;4.72;2.90;;;;;;;;;;4131480;34;20208;-64
2021/09/22 09:59:00;;;;;;;3.90;3.12;;;;;;;;;;4119968;34;20112;-64
2021/09/22 10:01:35;;;;;;;5.60;3.20;;;;;;;;;;4129805;34;20199;-64
2021/09/22 10:04:01;;;;;;;14.48;9.20;;;;;;;;;;4136362;34;20102;-64
2021/09/22 10:06:27;;;;;;;5.15;4.30;;;;;;;;;;4136084;34;20119;-65
2021/09/22 10:08:53;;;;;;;2.97;2.53;;;;;;;;;;4123830;34;20135;-65
2021/09/22 10:11:18;;;;;;;3.25;2.45;;;;;;;;;;4121012;34;20125;-65
2021/09/22 10:13:44;;;;;;;18.37;12.85;;;;;;;;;;4110163;34;20097;-65
2021/09/22 10:16:10;;;;;;;4.32;3.58;;;;;;;;;;4122505;34;20667;-64
2021/09/22 10:18:36;;;;;;;5.75;4.78;;;;;;;;;;4110831;34;20540;-64
2021/09/22 10:21:02;;;;;;;7.00;4.68;;;;;;;;;;4122392;34;20127;-64
2021/09/22 10:23:28;;;;;;;9.07;6.85;;;;;;;;;;4110521;34;20196;-64
2021/09/22 10:25:54;;;;;;;22.00;12.80;;;;;;;;;;4110046;34;20108;-64
2021/09/22 10:28:38;;;;;;;3.83;3.47;;;;;;;;;;4123761;34;20138;-65
2021/09/22 10:31:04;;;;;;;39.90;22.65;;;;;;;;;;4134840;34;20107;-64
2021/09/22 10:33:34;;;;;;;23.30;14.50;;;;;;;;;;4122726;34;20120;-65
2021/09/22 10:36:01;;;;;;;7.45;6.75;;;;;;;;;;4122742;34;20197;-64
2021/09/22 10:38:27;;;;;;;8.63;7.07;;;;;;;;;;4122700;34;20118;-64
2021/09/22 10:40:54;;;;;;;13.30;8.77;;;;;;;;;;4122624;34;20111;-64
2021/09/22 10:43:27;;;;;;;14.38;8.75;;;;;;;;;;4122619;34;20571;-66
2021/09/22 10:46:13;;;;;;;11.35;9.40;;;;;;;;;;4122423;34;20139;-65
2021/09/22 10:48:40;;;;;;;8.77;6.50;;;;;;;;;;4122425;34;20562;-65
2021/09/22 10:51:09;;;;;;;7.85;6.75;;;;;;;;;;4127384;34;20489;-66
2021/09/22 10:53:40;;;;;;;5.40;3.15;;;;;;;;;;4137911;34;20219;-66
2021/09/22 10:56:16;;;;;;;7.55;6.70;;;;;;;;;;4136223;34;20103;-65
2021/09/22 10:58:48;;;;;;;7.35;6.70;;;;;;;;;;4112898;34;20564;-65
2021/09/22 11:01:35;;;;;;;7.40;5.57;;;;;;;;;;4137812;34;20138;-66
2021/09/22 11:04:02;;;;;;;19.60;12.48;;;;;;;;;;4137930;34;20118;-67
2021/09/22 11:06:46;;;;;;;30.75;16.37;;;;;;;;;;4137648;34;20142;-66
2021/09/22 11:09:21;;;;;;;15.07;9.90;;;;;;;;;;4137663;34;20126;-67
2021/09/22 11:12:03;;;;;;;10.57;7.55;;;;;;;;;;4137881;34;20134;-64
2021/09/22 11:14:32;;;;;;;7.53;5.57;;;;;;;;;;4125562;34;20111;-66
2021/09/22 11:17:08;;;;;;;2.95;2.65;;;;;;;;;;4130404;34;20581;-67
2021/09/22 11:19:34;;;;;;;8.48;5.43;;;;;;;;;;4137748;34;20099;-66
2021/09/22 11:22:01;;;;;;;9.50;7.43;;;;;;;;;;4137748;34;20120;-66
2021/09/22 11:24:30;;;;;;;9.18;6.97;;;;;;;;;;4137996;34;20541;-66
2021/09/22 11:27:00;;;;;;;28.45;15.13;;;;;;;;;;4137712;34;20111;-67
2021/09/22 11:29:37;;;;;;;35.38;18.45;;;;;;;;;;4137738;34;20095;-66
2021/09/22 11:32:26;;;;;;;37.83;20.70;;;;;;;;;;4125354;34;20123;-67
2021/09/22 11:34:59;;;;;;;33.13;21.65;;;;;;;;;;4138332;34;20122;-62
2021/09/22 11:37:31;;;;;;;41.15;27.08;;;;;;;;;;4136439;34;20637;-63
2021/09/22 11:40:08;;;;;;;29.10;18.75;;;;;;;;;;4133542;34;20220;-68
2021/09/22 11:42:34;;;;;;;9.63;5.95;;;;;;;;;;4112000;34;20539;-65
2021/09/22 11:45:00;;;;;;;28.50;21.33;;;;;;;;;;4112274;34;20209;-67
2021/09/22 11:47:26;;;;;;;24.95;15.45;;;;;;;;;;4100929;34;20536;-64
2021/09/22 11:49:51;;;;;;;30.37;20.08;;;;;;;;;;4124131;34;20108;-64
2021/09/22 11:52:19;;;;;;;27.67;20.00;;;;;;;;;;4135732;34;20592;-63
2021/09/22 11:55:09;;;;;;;10.70;6.93;;;;;;;;;;4137571;34;20534;-65
2021/09/22 11:57:40;;;;;;;30.70;19.70;;;;;;;;;;4137765;34;20115;-65
2021/09/22 12:00:14;;;;;;;26.73;17.40;;;;;;;;;;4137472;34;20126;-66
2021/09/22 12:02:40;;;;;;;29.63;18.70;;;;;;;;;;4137424;34;20501;-65
2021/09/22 12:05:07;;;;;;;19.92;14.25;;;;;;;;;;4114081;34;20112;-64
2021/09/22 12:07:33;;;;;;;23.52;16.83;;;;;;;;;;4138833;34;20147;-63
2021/09/22 12:10:01;;;;;;;34.00;21.90;;;;;;;;;;4124661;34;20220;-63
2021/09/22 12:12:27;;;;;;;30.62;19.20;;;;;;;;;;4137168;34;20458;-64
2021/09/22 12:14:57;;;;;;;33.65;21.20;;;;;;;;;;4137624;34;20107;-64
2021/09/22 12:17:27;;;;;;;20.42;12.43;;;;;;;;;;4137196;34;20112;-65
2021/09/22 12:19:53;;;;;;;10.40;6.50;;;;;;;;;;4124881;34;20118;-64
2021/09/22 12:22:24;;;;;;;14.27;10.27;;;;;;;;;;4137488;34;20115;-63
2021/09/22 12:24:50;;;;;;;13.02;7.40;;;;;;;;;;4137356;34;20588;-65
2021/09/22 12:27:18;;;;;;;16.27;6.68;;;;;;;;;;4114105;34;20428;-64
2021/09/22 12:30:07;;;;;;;11.35;8.70;;;;;;;;;;4137506;34;20095;-64
2021/09/22 12:33:08;;;;;;;29.67;16.30;;;;;;;;;;4137509;34;20137;-64
2021/09/22 12:35:41;;;;;;;27.55;17.40;;;;;;;;;;4137334;34;20111;-66
2021/09/22 12:38:08;;;;;;;23.17;18.67;;;;;;;;;;4137348;34;20530;-66
2021/09/22 12:40:41;;;;;;;29.63;16.65;;;;;;;;;;4137311;34;20131;-65
2021/09/22 12:43:28;;;;;;;19.62;12.80;;;;;;;;;;4137376;34;20496;-65
2021/09/22 12:46:11;;;;;;;11.25;5.62;;;;;;;;;;4137500;34;20119;-64
2021/09/22 12:48:37;;;;;;;10.05;5.30;;;;;;;;;;4137114;34;20100;-65
2021/09/22 12:51:12;;;;;;;13.02;6.32;;;;;;;;;;4136924;34;20116;-64
2021/09/22 12:53:37;;;;;;;6.32;5.72;;;;;;;;;;4137314;34;20432;-66
2021/09/22 12:56:04;;;;;;;10.02;7.20;;;;;;;;;;4124494;34;20111;-64
2021/09/22 12:58:30;;;;;;;17.62;7.93;;;;;;;;;;4102330;34;20558;-64
2021/09/22 13:00:58;;;;;;;9.35;7.85;;;;;;;;;;4113696;34;20142;-64
2021/09/22 13:03:30;;;;;;;23.85;14.15;;;;;;;;;;4137032;34;20134;-64
2021/09/22 13:06:05;;;;;;;25.23;16.05;;;;;;;;;;4136976;34;20119;-64
2021/09/22 13:08:31;;;;;;;30.58;22.08;;;;;;;;;;4136809;34;20243;-63
2021/09/22 13:11:04;;;;;;;32.90;17.62;;;;;;;;;;4132927;34;20132;-64
2021/09/22 13:13:48;;;;;;;25.25;16.73;;;;;;;;;;4129755;34;20214;-63
2021/09/22 13:16:18;;;;;;;12.98;7.00;;;;;;;;;;4123319;34;20155;-64
2021/09/22 13:18:44;;;;;;;7.62;4.03;;;;;;;;;;4123496;34;20721;-63
2021/09/22 13:21:10;;;;;;;11.15;5.53;;;;;;;;;;4123511;34;20218;-62
2021/09/22 13:23:39;;;;;;;9.23;5.20;;;;;;;;;;4111115;34;20527;-63
2021/09/22 13:26:05;;;;;;;11.15;4.45;;;;;;;;;;4111305;34;20116;-63
2021/09/22 13:28:31;;;;;;;12.13;7.05;;;;;;;;;;4123340;34;20540;-64
2021/09/22 13:30:59;;;;;;;19.35;5.75;;;;;;;;;;4123906;34;20133;-64
2021/09/22 13:33:25;;;;;;;17.50;9.52;;;;;;;;;;4123924;34;20540;-63
2021/09/22 13:35:51;;;;;;;13.43;8.38;;;;;;;;;;4123493;34;20108;-65
2021/09/22 13:38:17;;;;;;;14.55;10.50;;;;;;;;;;4123350;34;20128;-63
2021/09/22 13:40:42;;;;;;;27.75;17.35;;;;;;;;;;4123274;34;20336;-63
2021/09/22 13:43:08;;;;;;;44.83;22.20;;;;;;;;;;4123189;34;20526;-63
2021/09/22 13:45:34;;;;;;;34.80;23.83;;;;;;;;;;4123633;34;20124;-64
2021/09/22 13:48:01;;;;;;;32.10;21.20;;;;;;;;;;4123165;34;20456;-63
2021/09/22 13:50:27;;;;;;;50.03;28.12;;;;;;;;;;4129110;34;20126;-63
2021/09/22 13:52:53;;;;;;;81.68;35.88;;;;;;;;;;4136519;34;20467;-64
2021/09/22 13:55:19;;;;;;;51.00;28.40;;;;;;;;;;4124074;34;20186;-65
2021/09/22 13:57:45;;;;;;;33.45;17.37;;;;;;;;;;4136481;34;20096;-64
2021/09/22 14:00:11;;;;;;;87.37;47.67;;;;;;;;;;4136542;34;20294;-63
2021/09/22 14:02:37;;;;;;;55.05;29.67;;;;;;;;;;4136705;34;20190;-63
2021/09/22 14:05:03;;;;;;;40.92;25.17;;;;;;;;;;4124215;34;20138;-64
2021/09/22 14:07:29;;;;;;;55.33;32.78;;;;;;;;;;4136397;34;20127;-64
2021/09/22 14:09:55;;;;;;;50.50;30.37;;;;;;;;;;4136295;34;20547;-65
2021/09/22 14:12:20;;;;;;;35.70;23.25;;;;;;;;;;4136561;34;20130;-65
2021/09/22 14:14:46;;;;;;;30.88;19.90;;;;;;;;;;4137156;34;20198;-64
2021/09/22 14:17:12;;;;;;;33.50;21.08;;;;;;;;;;4127647;34;20555;-66
2021/09/22 14:19:38;;;;;;;28.48;18.48;;;;;;;;;;4136343;34;20107;-66
2021/09/22 14:22:04;;;;;;;20.83;7.72;;;;;;;;;;4136278;34;20130;-66
2021/09/22 14:24:30;;;;;;;36.50;21.33;;;;;;;;;;4136911;34;20116;-64
2021/09/22 14:26:56;;;;;;;14.75;9.73;;;;;;;;;;4137713;34;20625;-64
2021/09/22 14:29:21;;;;;;;27.75;18.40;;;;;;;;;;4136989;34;20250;-66
2021/09/22 14:31:47;;;;;;;16.77;8.25;;;;;;;;;;4139150;34;20194;-65
2021/09/22 14:34:13;;;;;;;41.55;22.48;;;;;;;;;;4138615;34;20140;-65
2021/09/22 14:36:40;;;;;;;26.60;16.65;;;;;;;;;;4138436;34;20130;-67
2021/09/22 14:39:05;;;;;;;10.85;5.50;;;;;;;;;;4138244;34;20143;-67
2021/09/22 14:41:31;;;;;;;10.52;6.07;;;;;;;;;;4138111;34;20100;-67
2021/09/22 14:43:57;;;;;;;10.13;6.82;;;;;;;;;;4138916;34;20120;-67
2021/09/22 14:46:23;;;;;;;8.10;5.00;;;;;;;;;;4138353;34;20150;-67
2021/09/22 14:48:49;;;;;;;6.10;4.10;;;;;;;;;;4138393;34;20628;-67
2021/09/22 14:51:15;;;;;;;10.77;7.07;;;;;;;;;;4127086;34;20138;-66
2021/09/22 14:53:41;;;;;;;7.87;5.45;;;;;;;;;;4136382;34;20114;-66